createdAt,value
2017-07-16T00:01:49.493Z,3.43
2017-07-16T00:04:18.802Z,3.10
2017-07-16T00:06:47.895Z,3.10
2017-07-16T00:09:16.938Z,3.57
2017-07-16T00:11:46.751Z,3.30
2017-07-16T00:14:16.588Z,3.07
2017-07-16T00:16:46.491Z,3.87
2017-07-16T00:19:16.322Z,3.33
2017-07-16T00:21:45.386Z,3.10
2017-07-16T00:24:15.264Z,3.07
2017-07-16T00:26:44.329Z,3.20
2017-07-16T00:29:13.385Z,3.13
2017-07-16T00:31:43.227Z,2.90
2017-07-16T00:34:12.300Z,3.23
2017-07-16T00:36:42.129Z,3.30
2017-07-16T00:39:11.861Z,3.30
2017-07-16T00:41:40.917Z,3.47
2017-07-16T00:44:10.757Z,3.03
2017-07-16T00:46:39.832Z,3.50
2017-07-16T00:49:09.648Z,3.00
2017-07-16T00:51:39.676Z,3.10
2017-07-16T00:54:08.732Z,3.13
2017-07-16T00:56:37.800Z,3.20
2017-07-16T00:59:06.868Z,3.10
2017-07-16T01:01:35.956Z,3.50
2017-07-16T01:04:05.006Z,3.70
2017-07-16T01:06:34.057Z,3.20
2017-07-16T01:09:03.149Z,4.17
2017-07-16T01:11:32.219Z,3.77
2017-07-16T01:14:01.277Z,3.60
2017-07-16T01:16:30.341Z,3.17
2017-07-16T01:18:59.416Z,3.50
2017-07-16T01:21:29.252Z,3.50
2017-07-16T01:23:58.307Z,3.20
2017-07-16T01:26:28.130Z,3.43
2017-07-16T01:28:57.960Z,3.90
2017-07-16T01:31:27.002Z,2.93
2017-07-16T01:33:56.057Z,3.70
2017-07-16T01:36:25.139Z,3.30
2017-07-16T01:38:54.980Z,3.20
2017-07-16T01:41:24.032Z,3.20
2017-07-16T01:43:53.176Z,3.80
2017-07-16T01:46:22.255Z,3.23
2017-07-16T01:48:51.324Z,3.30
2017-07-16T01:51:20.421Z,3.40
2017-07-16T01:53:49.533Z,3.40
2017-07-16T01:56:18.614Z,3.10
2017-07-16T01:58:48.513Z,3.40
2017-07-16T02:01:17.548Z,3.20
2017-07-16T02:03:46.657Z,3.30
2017-07-16T02:06:15.776Z,3.90
2017-07-16T02:08:44.829Z,2.93
2017-07-16T02:11:13.912Z,3.83
2017-07-16T02:13:42.984Z,3.40
2017-07-16T02:16:12.804Z,3.03
2017-07-16T02:18:42.649Z,3.03
2017-07-16T02:21:11.749Z,3.10
2017-07-16T02:23:40.805Z,3.20
2017-07-16T02:26:10.657Z,3.10
2017-07-16T02:28:39.688Z,3.57
2017-07-16T02:31:09.308Z,3.40
2017-07-16T02:33:38.513Z,3.60
2017-07-16T02:36:08.362Z,3.30
2017-07-16T02:38:37.440Z,3.13
2017-07-16T02:41:06.503Z,2.60
2017-07-16T02:43:35.654Z,3.53
2017-07-16T02:46:04.820Z,3.23
2017-07-16T02:48:34.622Z,3.23
2017-07-16T02:51:04.441Z,3.50
2017-07-16T02:53:34.266Z,3.00
2017-07-16T02:56:03.920Z,3.27
2017-07-16T02:58:32.993Z,3.63
2017-07-16T03:01:02.345Z,3.20
2017-07-16T03:03:31.387Z,3.50
2017-07-16T03:06:00.463Z,3.17
2017-07-16T03:08:29.521Z,3.10
2017-07-16T03:10:58.593Z,3.57
2017-07-16T03:13:27.684Z,3.20
2017-07-16T03:15:56.745Z,3.70
2017-07-16T03:18:25.833Z,3.70
2017-07-16T03:20:54.917Z,3.33
2017-07-16T03:23:24.732Z,3.43
2017-07-16T03:25:54.565Z,3.70
2017-07-16T03:28:23.644Z,3.90
2017-07-16T03:30:53.465Z,3.80
2017-07-16T03:33:22.534Z,3.33
2017-07-16T03:35:51.605Z,3.70
2017-07-16T03:38:20.689Z,3.47
2017-07-16T03:40:50.197Z,3.90
2017-07-16T03:43:19.249Z,3.70
2017-07-16T03:45:49.102Z,3.83
2017-07-16T03:48:18.139Z,3.90
2017-07-16T03:50:48.211Z,4.07
2017-07-16T03:53:17.355Z,3.53
2017-07-16T03:55:46.389Z,3.90
2017-07-16T03:58:15.467Z,4.20
2017-07-16T04:00:45.304Z,4.43
2017-07-16T04:03:14.397Z,3.90
2017-07-16T04:05:43.433Z,3.77
2017-07-16T04:08:12.652Z,4.40
2017-07-16T04:10:42.478Z,4.03
2017-07-16T04:13:12.693Z,4.47
2017-07-16T04:15:41.765Z,4.10
2017-07-16T04:18:10.829Z,4.10
2017-07-16T04:20:39.915Z,4.60
2017-07-16T04:23:09.004Z,4.10
2017-07-16T04:25:38.056Z,3.80
2017-07-16T04:28:07.869Z,4.00
2017-07-16T04:30:36.937Z,3.63
2017-07-16T04:33:05.984Z,3.93
2017-07-16T04:35:35.045Z,3.77
2017-07-16T04:38:04.121Z,3.83
2017-07-16T04:40:33.151Z,3.80
2017-07-16T04:43:03.023Z,3.93
2017-07-16T04:45:32.955Z,3.40
2017-07-16T04:48:02.056Z,3.20
2017-07-16T04:50:31.096Z,4.20
2017-07-16T04:53:00.131Z,4.00
2017-07-16T04:55:29.242Z,3.80
2017-07-16T04:57:58.263Z,4.73
2017-07-16T05:00:27.353Z,3.20
2017-07-16T05:02:57.198Z,4.07
2017-07-16T05:05:26.253Z,3.80
2017-07-16T05:07:56.095Z,3.73
2017-07-16T05:10:25.996Z,3.70
2017-07-16T05:12:55.078Z,3.97
2017-07-16T05:15:24.118Z,4.20
2017-07-16T05:17:53.188Z,4.37
2017-07-16T05:20:22.265Z,4.13
2017-07-16T05:22:52.100Z,5.80
2017-07-16T05:25:21.177Z,4.30
2017-07-16T05:27:51.016Z,4.00
2017-07-16T05:30:20.089Z,4.37
2017-07-16T05:32:49.920Z,4.60
2017-07-16T05:35:18.989Z,4.23
2017-07-16T05:37:48.800Z,4.10
2017-07-16T05:40:17.913Z,3.80
2017-07-16T05:42:46.944Z,4.60
2017-07-16T05:45:16.005Z,4.60
2017-07-16T05:47:45.097Z,4.47
2017-07-16T05:50:14.920Z,4.23
2017-07-16T05:52:44.167Z,4.33
2017-07-16T05:55:13.292Z,4.30
2017-07-16T05:57:42.374Z,4.40
2017-07-16T06:00:11.526Z,4.40
2017-07-16T06:02:40.551Z,4.30
2017-07-16T06:05:09.644Z,4.70
2017-07-16T06:07:38.733Z,5.07
2017-07-16T06:10:07.840Z,4.80
2017-07-16T06:12:36.922Z,4.50
2017-07-16T06:15:05.985Z,4.70
2017-07-16T06:17:35.038Z,6.10
2017-07-16T06:20:04.125Z,5.43
2017-07-16T06:22:33.264Z,5.40
2017-07-16T06:25:02.327Z,6.10
2017-07-16T06:27:31.377Z,7.37
2017-07-16T06:30:00.432Z,6.90
2017-07-16T06:32:29.479Z,6.80
2017-07-16T06:34:58.547Z,7.70
2017-07-16T06:37:27.602Z,8.00
2017-07-16T06:39:56.868Z,8.70
2017-07-16T06:42:25.956Z,8.53
2017-07-16T06:44:55.025Z,9.13
2017-07-16T06:47:24.076Z,8.77
2017-07-16T06:49:53.146Z,8.53
2017-07-16T06:52:22.222Z,9.70
2017-07-16T06:54:51.271Z,9.73
2017-07-16T06:57:21.203Z,9.60
2017-07-16T06:59:51.032Z,9.43
2017-07-16T07:02:20.118Z,9.97
2017-07-16T07:04:49.217Z,9.47
2017-07-16T07:07:19.057Z,9.60
2017-07-16T07:09:48.129Z,8.63
2017-07-16T07:12:17.177Z,9.43
2017-07-16T07:14:46.285Z,8.47
2017-07-16T07:17:15.364Z,9.23
2017-07-16T07:19:44.653Z,9.53
2017-07-16T07:22:13.760Z,10.20
2017-07-16T07:24:42.834Z,8.90
2017-07-16T07:27:12.551Z,8.67
2017-07-16T07:29:41.637Z,7.77
2017-07-16T07:32:10.694Z,9.63
2017-07-16T07:34:40.532Z,9.63
2017-07-16T07:37:09.675Z,8.57
2017-07-16T07:39:38.748Z,8.90
2017-07-16T07:42:07.921Z,8.70
2017-07-16T07:44:37.009Z,8.90
2017-07-16T07:47:06.117Z,8.57
2017-07-16T07:49:35.189Z,7.50
2017-07-16T07:52:04.463Z,8.00
2017-07-16T07:54:33.508Z,7.87
2017-07-16T07:57:02.560Z,7.90
2017-07-16T07:59:31.619Z,7.70
2017-07-16T08:02:00.688Z,9.20
2017-07-16T08:04:29.778Z,9.37
2017-07-16T08:06:58.834Z,8.80
2017-07-16T08:09:27.887Z,7.20
2017-07-16T08:11:56.968Z,7.13
2017-07-16T08:14:26.031Z,7.10
2017-07-16T08:16:55.877Z,6.80
2017-07-16T08:19:24.956Z,6.40
2017-07-16T08:21:54.027Z,8.07
2017-07-16T08:24:23.080Z,7.57
2017-07-16T08:26:52.149Z,6.50
2017-07-16T08:29:21.227Z,6.33
2017-07-16T08:31:51.077Z,7.10
2017-07-16T08:34:20.149Z,6.80
2017-07-16T08:36:49.975Z,6.87
2017-07-16T08:39:19.002Z,7.03
2017-07-16T08:41:48.073Z,7.37
2017-07-16T08:44:17.132Z,6.07
2017-07-16T08:46:46.981Z,5.90
2017-07-16T08:49:16.056Z,7.13
2017-07-16T08:51:45.108Z,6.70
2017-07-16T08:54:14.194Z,7.07
2017-07-16T08:56:43.296Z,5.57
2017-07-16T08:59:12.377Z,6.20
2017-07-16T09:01:41.420Z,5.00
2017-07-16T09:04:10.508Z,5.30
2017-07-16T09:06:39.585Z,6.00
2017-07-16T09:09:08.661Z,6.80
2017-07-16T09:11:37.727Z,6.63
2017-07-16T09:14:06.781Z,6.10
2017-07-16T09:16:36.618Z,6.50
2017-07-16T09:19:05.666Z,7.63
2017-07-16T09:21:34.762Z,6.90
2017-07-16T09:24:03.856Z,6.27
2017-07-16T09:26:33.555Z,7.20
2017-07-16T09:29:02.664Z,6.50
2017-07-16T09:31:31.778Z,6.50
2017-07-16T09:34:01.622Z,6.70
2017-07-16T09:36:30.685Z,6.40
2017-07-16T09:38:59.875Z,6.80
2017-07-16T09:41:29.256Z,6.97
2017-07-16T09:43:58.794Z,6.50
2017-07-16T09:46:28.611Z,7.10
2017-07-16T09:48:58.460Z,8.30
2017-07-16T09:51:27.527Z,9.47
2017-07-16T09:53:56.643Z,8.30
2017-07-16T09:56:25.748Z,8.70
2017-07-16T09:58:54.815Z,8.67
2017-07-16T10:01:24.673Z,8.17
2017-07-16T10:03:53.732Z,9.00
2017-07-16T10:06:22.790Z,8.50
2017-07-16T10:08:51.845Z,8.43
2017-07-16T10:11:20.913Z,8.83
2017-07-16T10:13:50.014Z,8.20
2017-07-16T10:16:19.096Z,8.50
2017-07-16T10:18:48.905Z,8.13
2017-07-16T10:21:17.980Z,8.23
2017-07-16T10:23:47.038Z,8.90
2017-07-16T10:26:16.936Z,9.00
2017-07-16T10:28:46.038Z,8.60
2017-07-16T10:31:15.088Z,9.63
2017-07-16T10:33:44.155Z,8.53
2017-07-16T10:36:13.252Z,10.10
2017-07-16T10:38:42.318Z,9.83
2017-07-16T10:41:11.428Z,9.37
2017-07-16T10:43:40.512Z,8.30
2017-07-16T10:46:09.619Z,9.27
2017-07-16T10:48:38.674Z,8.90
2017-07-16T10:51:08.490Z,9.60
2017-07-16T10:53:37.576Z,9.40
2017-07-16T10:56:06.644Z,10.00
2017-07-16T10:58:35.709Z,9.70
2017-07-16T11:01:04.782Z,9.90
2017-07-16T11:03:33.848Z,9.23
2017-07-16T11:06:03.672Z,10.03
2017-07-16T11:08:33.517Z,10.20
2017-07-16T11:11:02.589Z,11.03
2017-07-16T11:13:31.669Z,10.37
2017-07-16T11:16:02.266Z,10.03
2017-07-16T11:18:32.344Z,10.83
2017-07-16T11:21:01.470Z,10.70
2017-07-16T11:23:30.519Z,11.10
2017-07-16T11:25:59.578Z,10.67
2017-07-16T11:28:28.691Z,11.90
2017-07-16T11:30:58.516Z,11.27
2017-07-16T11:33:28.726Z,12.40
2017-07-16T11:35:57.798Z,12.00
2017-07-16T11:38:26.852Z,12.13
2017-07-16T11:40:55.953Z,12.53
2017-07-16T11:43:25.030Z,12.37
2017-07-16T11:45:54.076Z,11.20
2017-07-16T11:48:23.617Z,10.70
2017-07-16T11:50:52.664Z,11.23
2017-07-16T11:53:22.735Z,11.00
2017-07-16T11:55:51.781Z,10.00
2017-07-16T11:58:20.874Z,10.87
2017-07-16T12:00:49.962Z,11.17
2017-07-16T12:03:19.063Z,11.50
2017-07-16T12:05:48.161Z,12.07
2017-07-16T12:08:17.221Z,10.40
2017-07-16T12:10:46.292Z,10.90
2017-07-16T12:13:16.169Z,11.77
2017-07-16T12:15:45.228Z,11.83
2017-07-16T12:18:14.308Z,10.03
2017-07-16T12:20:44.139Z,10.60
2017-07-16T12:23:13.263Z,11.17
2017-07-16T12:25:42.528Z,9.93
2017-07-16T12:28:11.659Z,10.83
2017-07-16T12:30:40.697Z,12.30
2017-07-16T12:33:10.571Z,11.73
2017-07-16T12:35:39.666Z,11.80
2017-07-16T12:38:08.895Z,11.83
2017-07-16T12:40:37.949Z,12.57
2017-07-16T12:43:07.081Z,11.23
2017-07-16T12:45:36.440Z,11.27
2017-07-16T12:48:05.481Z,13.97
2017-07-16T12:50:35.347Z,14.57
2017-07-16T12:53:04.437Z,14.10
2017-07-16T12:55:33.486Z,14.40
2017-07-16T12:58:02.569Z,13.30
2017-07-16T13:00:31.664Z,13.17
2017-07-16T13:03:00.785Z,13.70
2017-07-16T13:05:29.836Z,14.83
2017-07-16T13:07:58.904Z,14.90
2017-07-16T13:10:27.957Z,15.30
2017-07-16T13:12:57.804Z,16.20
2017-07-16T13:15:27.234Z,16.57
2017-07-16T13:17:56.290Z,17.90
2017-07-16T13:20:25.631Z,16.93
2017-07-16T13:22:54.700Z,16.27
2017-07-16T13:25:23.761Z,15.17
2017-07-16T13:27:52.833Z,15.57
2017-07-16T13:30:21.895Z,15.10
2017-07-16T13:32:50.977Z,15.47
2017-07-16T13:35:20.091Z,15.77
2017-07-16T13:37:49.166Z,17.63
2017-07-16T13:40:18.263Z,15.60
2017-07-16T13:42:47.376Z,16.30
2017-07-16T13:45:16.680Z,15.30
2017-07-16T13:47:45.775Z,15.60
2017-07-16T13:50:14.878Z,15.37
2017-07-16T13:52:43.928Z,14.80
2017-07-16T13:55:13.768Z,16.20
2017-07-16T13:57:42.836Z,14.83
2017-07-16T14:00:12.739Z,14.00
2017-07-16T14:02:41.795Z,14.70
2017-07-16T14:05:10.840Z,14.47
2017-07-16T14:07:40.709Z,16.43
2017-07-16T14:10:09.821Z,15.40
2017-07-16T14:12:38.901Z,14.80
2017-07-16T14:15:07.999Z,15.30
2017-07-16T14:17:37.038Z,13.70
2017-07-16T14:20:06.141Z,14.73
2017-07-16T14:22:35.219Z,16.07
2017-07-16T14:25:04.306Z,13.60
2017-07-16T14:27:33.397Z,13.67
2017-07-16T14:30:02.515Z,14.00
2017-07-16T14:32:31.581Z,13.80
2017-07-16T14:35:00.692Z,13.53
2017-07-16T14:37:29.765Z,12.13
2017-07-16T14:39:58.809Z,12.43
2017-07-16T14:42:27.898Z,13.10
2017-07-16T14:44:57.732Z,13.37
2017-07-16T14:47:26.886Z,12.10
2017-07-16T14:49:56.769Z,12.80
2017-07-16T14:52:25.869Z,12.80
2017-07-16T14:54:54.944Z,12.90
2017-07-16T14:57:23.985Z,12.77
2017-07-16T14:59:53.098Z,12.83
2017-07-16T15:02:22.154Z,12.67
2017-07-16T15:04:51.266Z,12.00
2017-07-16T15:07:20.327Z,11.57
2017-07-16T15:09:49.381Z,13.90
2017-07-16T15:12:18.465Z,13.50
2017-07-16T15:14:48.289Z,13.70
2017-07-16T15:17:17.364Z,11.83
2017-07-16T15:19:47.197Z,12.60
2017-07-16T15:22:17.072Z,13.40
2017-07-16T15:24:46.172Z,13.00
2017-07-16T15:27:15.235Z,12.47
2017-07-16T15:29:44.316Z,12.57
2017-07-16T15:32:13.579Z,10.77
2017-07-16T15:34:42.653Z,11.13
2017-07-16T15:37:11.775Z,11.50
2017-07-16T15:39:40.836Z,10.33
2017-07-16T15:42:09.934Z,10.73
2017-07-16T15:44:39.021Z,10.20
2017-07-16T15:47:08.792Z,10.07
2017-07-16T15:49:38.600Z,10.97
2017-07-16T15:52:08.610Z,10.93
2017-07-16T15:54:38.441Z,11.53
2017-07-16T15:57:07.513Z,11.20
2017-07-16T15:59:37.356Z,11.20
2017-07-16T16:02:06.445Z,12.00
2017-07-16T16:04:35.530Z,11.37
2017-07-16T16:07:05.354Z,10.90
2017-07-16T16:09:34.451Z,11.63
2017-07-16T16:12:03.517Z,11.57
2017-07-16T16:14:33.372Z,11.90
2017-07-16T16:17:02.439Z,11.70
2017-07-16T16:19:33.049Z,11.53
2017-07-16T16:22:02.115Z,10.83
2017-07-16T16:24:31.181Z,12.40
2017-07-16T16:27:00.276Z,12.77
2017-07-16T16:29:29.367Z,11.10
2017-07-16T16:31:58.468Z,10.97
2017-07-16T16:34:27.515Z,10.60
2017-07-16T16:36:56.594Z,10.97
2017-07-16T16:39:25.654Z,11.77
2017-07-16T16:41:54.767Z,11.90
2017-07-16T16:44:23.891Z,12.40
2017-07-16T16:46:52.940Z,11.77
2017-07-16T16:49:22.024Z,13.17
2017-07-16T16:51:51.156Z,11.20
2017-07-16T16:54:20.226Z,10.63
2017-07-16T16:56:49.296Z,12.30
2017-07-16T16:59:19.126Z,11.50
2017-07-16T17:01:48.201Z,11.10
2017-07-16T17:04:18.075Z,11.30
2017-07-16T17:06:47.121Z,12.17
2017-07-16T17:09:16.208Z,12.20
2017-07-16T17:11:46.053Z,13.37
2017-07-16T17:14:15.128Z,11.53
2017-07-16T17:16:44.224Z,12.30
2017-07-16T17:19:14.083Z,11.57
2017-07-16T17:21:43.156Z,11.30
2017-07-16T17:24:12.276Z,11.77
2017-07-16T17:26:41.355Z,10.60
2017-07-16T17:29:10.466Z,11.33
2017-07-16T17:31:40.365Z,13.00
2017-07-16T17:34:09.460Z,12.03
2017-07-16T18:45:27.733Z,16.30
2017-07-16T18:47:56.793Z,18.17
2017-07-16T18:50:25.889Z,20.17
2017-07-16T18:52:54.960Z,20.00
2017-07-16T18:55:24.860Z,20.47
2017-07-16T18:57:54.950Z,20.40
2017-07-16T19:00:24.091Z,20.83
2017-07-16T19:02:53.905Z,20.80
2017-07-16T19:05:22.991Z,20.00
2017-07-16T19:07:52.910Z,22.07
2017-07-16T19:10:22.078Z,20.20
2017-07-16T19:12:52.070Z,19.87
2017-07-16T19:15:21.253Z,19.57
2017-07-16T19:17:51.312Z,20.30
2017-07-16T19:20:20.626Z,22.10
2017-07-16T19:22:49.724Z,20.03
2017-07-16T19:25:19.111Z,22.80
2017-07-16T19:27:48.295Z,23.03
2017-07-16T19:30:17.399Z,21.23
2017-07-16T19:32:46.614Z,23.07
2017-07-16T19:35:15.780Z,21.70
2017-07-16T19:37:44.940Z,21.93
2017-07-16T19:40:14.109Z,22.20
2017-07-16T19:42:43.254Z,22.30
2017-07-16T19:45:12.491Z,22.33
2017-07-16T19:47:41.569Z,21.53
2017-07-16T19:50:10.740Z,20.70
2017-07-16T19:52:39.994Z,20.70
2017-07-16T19:55:09.183Z,19.87
2017-07-16T19:57:38.263Z,18.73
2017-07-16T20:00:07.416Z,19.20
2017-07-16T20:02:36.538Z,17.40
2017-07-16T20:05:05.683Z,18.40
2017-07-16T20:07:34.793Z,18.17
2017-07-16T20:10:03.871Z,16.77
2017-07-16T20:12:32.942Z,15.80
2017-07-16T20:15:02.013Z,16.60
2017-07-16T20:17:31.101Z,15.30
2017-07-16T20:20:00.147Z,14.63
2017-07-16T20:22:29.206Z,16.00
2017-07-16T20:24:58.279Z,15.77
2017-07-16T20:27:27.347Z,14.50
2017-07-16T20:29:56.425Z,15.37
2017-07-16T20:32:25.523Z,15.20
2017-07-16T20:34:54.575Z,14.93
2017-07-16T20:37:23.642Z,15.83
2017-07-16T20:39:52.758Z,14.37
2017-07-16T20:42:21.854Z,16.53
2017-07-16T20:44:50.912Z,13.63
2017-07-16T20:47:19.999Z,14.30
2017-07-16T20:49:49.071Z,15.50
2017-07-16T20:52:18.136Z,14.90
2017-07-16T20:54:47.222Z,13.63
2017-07-16T20:57:16.305Z,13.43
2017-07-16T20:59:45.398Z,15.10
2017-07-16T21:02:14.468Z,15.67
2017-07-16T21:04:43.542Z,14.87
2017-07-16T21:07:12.759Z,13.60
2017-07-16T21:09:41.829Z,15.50
2017-07-16T21:12:10.895Z,17.67
2017-07-16T21:14:39.986Z,16.83
2017-07-16T21:17:09.106Z,17.20
2017-07-16T21:19:38.157Z,16.30
2017-07-16T21:22:07.272Z,14.80
2017-07-16T21:24:36.349Z,15.90
2017-07-16T21:27:05.406Z,16.27
2017-07-16T21:29:34.479Z,15.40
2017-07-16T21:32:03.612Z,15.87
2017-07-16T21:34:32.737Z,15.53
2017-07-16T21:37:01.812Z,17.37
2017-07-16T21:39:31.119Z,15.83
2017-07-16T21:42:00.265Z,16.20
2017-07-16T21:44:29.346Z,15.50
2017-07-16T21:46:58.410Z,16.67
2017-07-16T21:49:27.499Z,15.90
2017-07-16T21:51:56.564Z,17.03
2017-07-16T21:54:25.636Z,15.43
2017-07-16T21:56:54.713Z,16.93
2017-07-16T21:59:23.778Z,16.40
2017-07-16T22:01:52.855Z,16.10
2017-07-16T22:04:21.965Z,16.70
2017-07-16T22:06:51.016Z,16.37
2017-07-16T22:09:20.110Z,17.40
2017-07-16T22:11:49.174Z,17.63
2017-07-16T22:14:18.225Z,16.10
2017-07-16T22:16:47.317Z,16.57
2017-07-16T22:19:16.495Z,16.67
2017-07-16T22:21:45.582Z,17.23
2017-07-16T22:24:14.693Z,16.30
2017-07-16T22:26:43.729Z,17.93
2017-07-16T22:29:12.999Z,16.97
2017-07-16T22:31:42.057Z,17.30
2017-07-16T22:34:11.137Z,19.80
2017-07-16T22:36:40.230Z,16.77
2017-07-16T22:39:09.321Z,19.20
2017-07-16T22:41:38.412Z,18.13
2017-07-16T22:44:07.742Z,17.57
2017-07-16T22:46:36.789Z,17.70
2017-07-16T22:49:05.852Z,18.80
2017-07-16T22:51:34.904Z,17.17
2017-07-16T22:54:03.989Z,18.00
2017-07-16T22:56:33.060Z,16.07
2017-07-16T22:59:02.131Z,18.80
2017-07-16T23:01:31.189Z,18.23
2017-07-16T23:04:00.261Z,17.87
2017-07-16T23:06:29.355Z,19.07
2017-07-16T23:08:58.433Z,16.90
2017-07-16T23:11:27.524Z,18.17
2017-07-16T23:13:56.608Z,16.43
2017-07-16T23:16:25.808Z,18.13
2017-07-16T23:18:54.885Z,17.00
2017-07-16T23:21:23.940Z,16.97
2017-07-16T23:23:53.023Z,17.30
2017-07-16T23:26:22.101Z,17.70
2017-07-16T23:28:51.140Z,15.60
2017-07-16T23:31:20.205Z,19.30
2017-07-16T23:33:49.273Z,17.63
2017-07-16T23:36:18.343Z,16.10
2017-07-16T23:38:47.405Z,18.40
2017-07-16T23:41:16.485Z,16.93
2017-07-16T23:43:45.545Z,18.43
2017-07-16T23:46:14.628Z,17.43
2017-07-16T23:48:43.690Z,16.67
2017-07-16T23:51:12.792Z,15.87
2017-07-16T23:53:41.851Z,16.90
2017-07-16T23:56:10.989Z,16.30
2017-07-16T23:58:40.015Z,16.30
